Time;durP1;ratioP1;P1;durP2;ratioP2;P2;SDS_P1;SDS_P2;PMS_P1;PMS_P2;Temp;Humidity;BMP_temperature;BMP_pressure;BME280_temperature;BME280_humidity;BME280_pressure;Samples;Min_cycle;Max_cycle;Signal;HPM_P1;HPM_P2
2023/07/04 00:00:44;;;;;;;11.13;1.48;;;12.00;99.90;;;;;;4965982;28;20059;-68
2023/07/04 00:03:10;;;;;;;4.03;0.90;;;12.00;99.90;;;;;;4943039;29;20041;-67
2023/07/04 00:05:36;;;;;;;5.47;1.00;;;12.00;99.90;;;;;;4938892;28;20054;-68
2023/07/04 00:08:04;;;;;;;4.57;0.88;;;12.00;99.90;;;;;;4949550;28;20062;-68
2023/07/04 00:10:30;;;;;;;3.00;0.60;;;12.00;99.90;;;;;;4955708;28;20379;-68
2023/07/04 00:12:55;;;;;;;3.65;0.77;;;12.00;99.90;;;;;;4963261;28;20050;-69
2023/07/04 00:15:21;;;;;;;7.90;0.93;;;12.00;99.90;;;;;;4966392;28;20719;-68
2023/07/04 00:17:47;;;;;;;2.08;0.73;;;12.00;99.90;;;;;;4948311;28;20057;-67
2023/07/04 00:20:13;;;;;;;6.43;1.23;;;12.00;99.90;;;;;;4953850;28;20047;-67
2023/07/04 00:22:40;;;;;;;6.20;0.98;;;12.00;99.90;;;;;;4950736;28;20046;-67
2023/07/04 00:25:07;;;;;;;7.40;1.42;;;12.00;99.90;;;;;;4943062;28;20050;-67
2023/07/04 00:27:33;;;;;;;8.20;0.98;;;12.10;99.90;;;;;;4967107;28;20489;-67
2023/07/04 00:29:59;;;;;;;2.17;0.70;;;12.00;99.90;;;;;;4953062;28;20047;-68
2023/07/04 00:32:26;;;;;;;5.10;1.13;;;12.00;99.90;;;;;;4966188;28;20082;-68
2023/07/04 00:34:52;;;;;;;5.63;1.02;;;12.10;99.90;;;;;;4964811;28;20154;-67
2023/07/04 00:37:21;;;;;;;4.18;0.90;;;12.10;99.90;;;;;;4928987;28;20039;-67
2023/07/04 00:39:50;;;;;;;4.70;1.05;;;12.00;99.90;;;;;;4962164;28;20046;-67
2023/07/04 00:42:16;;;;;;;3.67;1.10;;;12.00;99.90;;;;;;4965786;28;20051;-67
2023/07/04 00:44:47;;;;;;;4.03;0.82;;;12.00;99.90;;;;;;4965845;28;20050;-67
2023/07/04 00:47:21;;;;;;;8.63;0.85;;;12.00;99.90;;;;;;4955027;28;20054;-67
2023/07/04 00:49:57;;;;;;;4.57;0.70;;;11.90;99.90;;;;;;4986164;28;20046;-67
2023/07/04 00:52:33;;;;;;;2.38;0.73;;;12.00;99.90;;;;;;4986522;28;20064;-68
2023/07/04 00:55:02;;;;;;;2.42;0.98;;;11.90;99.90;;;;;;4954964;28;20061;-67
2023/07/04 00:57:39;;;;;;;3.58;0.82;;;11.90;99.90;;;;;;4952371;28;20060;-67
2023/07/04 01:00:16;;;;;;;1.85;0.85;;;11.90;99.90;;;;;;4985912;28;20042;-67
2023/07/04 01:02:45;;;;;;;2.80;0.75;;;11.90;99.90;;;;;;4968776;28;20078;-67
2023/07/04 01:05:19;;;;;;;11.98;1.10;;;11.90;99.90;;;;;;4984860;28;20045;-67
2023/07/04 01:08:03;;;;;;;3.60;1.10;;;11.90;99.90;;;;;;4967203;28;20584;-67
2023/07/04 01:10:42;;;;;;;4.47;0.95;;;11.90;99.90;;;;;;4967755;28;20494;-67
2023/07/04 01:13:37;;;;;;;5.30;0.98;;;11.80;99.90;;;;;;4974119;28;20047;-67
2023/07/04 01:16:05;;;;;;;6.93;0.80;;;11.80;99.90;;;;;;4966299;28;20050;-68
2023/07/04 01:18:31;;;;;;;6.10;0.90;;;11.80;99.90;;;;;;4986289;28;20161;-67
2023/07/04 01:20:59;;;;;;;4.07;1.10;;;11.80;99.90;;;;;;4967154;28;20129;-67
2023/07/04 01:23:54;;;;;;;6.78;1.40;;;11.80;99.90;;;;;;4986422;28;20046;-68
2023/07/04 01:26:39;;;;;;;3.58;0.90;;;11.80;99.90;;;;;;4970629;28;20046;-67
2023/07/04 01:29:09;;;;;;;3.75;0.82;;;11.70;99.90;;;;;;4989203;28;20053;-67
2023/07/04 01:31:36;;;;;;;1.88;0.60;;;11.70;99.90;;;;;;4972034;28;20382;-67
2023/07/04 01:34:04;;;;;;;8.90;1.00;;;11.70;99.90;;;;;;4971053;28;20042;-67
2023/07/04 01:36:33;;;;;;;5.53;0.98;;;11.70;99.90;;;;;;4987722;28;20489;-67
2023/07/04 01:39:00;;;;;;;4.95;0.90;;;11.70;99.90;;;;;;4969334;28;20084;-67
2023/07/04 01:41:26;;;;;;;8.90;1.17;;;11.70;99.90;;;;;;4955306;28;20125;-68
2023/07/04 01:44:04;;;;;;;6.72;1.10;;;11.70;99.90;;;;;;4979823;28;20125;-67
2023/07/04 01:46:31;;;;;;;3.35;0.77;;;11.60;99.90;;;;;;4968554;28;20047;-68
2023/07/04 01:48:57;;;;;;;5.05;0.70;;;11.70;99.90;;;;;;4959363;28;20083;-67
2023/07/04 01:51:27;;;;;;;4.63;0.95;;;11.70;99.90;;;;;;4950582;28;20160;-67
2023/07/04 01:53:54;;;;;;;4.45;0.90;;;11.70;99.90;;;;;;4943836;28;20512;-67
2023/07/04 01:56:20;;;;;;;8.45;0.70;;;11.60;99.90;;;;;;4952042;28;20370;-67
2023/07/04 01:58:46;;;;;;;3.10;0.75;;;11.60;99.90;;;;;;4967775;28;20102;-67
2023/07/04 02:01:12;;;;;;;2.85;1.08;;;11.60;99.90;;;;;;4945095;28;20051;-67
2023/07/04 02:03:38;;;;;;;4.78;0.98;;;11.70;99.90;;;;;;4950929;28;20071;-67
2023/07/04 02:06:05;;;;;;;3.28;0.90;;;11.60;99.90;;;;;;4952113;28;20390;-67
2023/07/04 02:08:31;;;;;;;5.80;1.13;;;11.60;99.90;;;;;;4967771;28;20412;-68
2023/07/04 02:10:56;;;;;;;4.20;1.40;;;11.60;99.90;;;;;;4956577;28;20130;-68
2023/07/04 02:13:23;;;;;;;10.32;1.65;;;11.60;99.90;;;;;;4969007;28;20060;-67
2023/07/04 02:15:49;;;;;;;5.32;0.77;;;11.60;99.90;;;;;;4952088;28;20499;-67
2023/07/04 02:18:15;;;;;;;9.52;1.23;;;11.60;99.90;;;;;;4967401;28;20046;-67
2023/07/04 02:20:41;;;;;;;6.32;1.48;;;11.60;99.90;;;;;;4931740;29;20054;-67
2023/07/04 02:23:07;;;;;;;2.22;0.70;;;11.60;99.90;;;;;;4956328;28;20073;-67
2023/07/04 02:25:33;;;;;;;9.30;1.10;;;11.50;99.90;;;;;;4950483;28;20078;-67
2023/07/04 02:27:58;;;;;;;12.60;1.13;;;11.50;99.90;;;;;;4964456;28;20065;-67
2023/07/04 02:30:25;;;;;;;3.88;0.80;;;11.50;99.90;;;;;;4921902;29;20553;-67
2023/07/04 02:32:51;;;;;;;4.78;1.20;;;11.50;99.90;;;;;;4934147;28;20133;-67
2023/07/04 02:35:18;;;;;;;4.80;1.10;;;11.50;99.90;;;;;;4968406;28;20164;-67
2023/07/04 02:37:43;;;;;;;7.38;0.90;;;11.50;99.90;;;;;;4951049;28;20050;-67
2023/07/04 02:40:10;;;;;;;1.95;0.80;;;11.40;99.90;;;;;;4967406;28;20053;-67
2023/07/04 02:42:36;;;;;;;6.40;0.90;;;11.40;99.90;;;;;;4967390;28;20050;-67
2023/07/04 02:45:01;;;;;;;7.53;0.85;;;11.40;99.90;;;;;;4935747;28;20039;-67
2023/07/04 02:47:27;;;;;;;6.45;0.88;;;11.30;99.90;;;;;;4958109;28;20050;-67
2023/07/04 02:49:53;;;;;;;4.10;0.77;;;11.30;99.90;;;;;;4986935;28;20429;-68
2023/07/04 02:52:25;;;;;;;6.68;0.90;;;11.30;99.90;;;;;;4987307;28;20279;-67
2023/07/04 02:54:51;;;;;;;8.88;0.98;;;11.30;99.90;;;;;;4970564;28;20093;-67
2023/07/04 02:57:18;;;;;;;5.88;1.10;;;11.30;99.90;;;;;;4970330;28;20121;-67
2023/07/04 02:59:45;;;;;;;4.10;1.10;;;11.30;99.90;;;;;;4985621;28;20482;-67
2023/07/04 03:02:11;;;;;;;7.50;0.88;;;11.30;99.90;;;;;;4954389;28;20052;-67
2023/07/04 03:04:36;;;;;;;2.97;0.70;;;11.30;99.90;;;;;;4969047;28;20117;-67
2023/07/04 03:07:06;;;;;;;4.57;0.88;;;11.30;99.90;;;;;;4985003;28;20727;-67
2023/07/04 03:09:32;;;;;;;9.07;1.30;;;11.30;99.90;;;;;;4953360;28;20078;-67
2023/07/04 03:11:57;;;;;;;8.50;1.30;;;11.40;99.90;;;;;;4980817;28;20050;-67
2023/07/04 03:14:24;;;;;;;7.25;1.00;;;11.40;99.90;;;;;;4969357;28;20038;-67
2023/07/04 03:16:50;;;;;;;5.95;1.13;;;11.40;99.90;;;;;;4969614;28;20065;-67
2023/07/04 03:19:16;;;;;;;6.18;1.05;;;11.40;99.90;;;;;;4987258;28;20156;-67
2023/07/04 03:21:42;;;;;;;3.30;0.75;;;11.40;99.90;;;;;;4986505;28;20038;-67
2023/07/04 03:24:07;;;;;;;2.17;0.60;;;11.50;99.90;;;;;;4970209;28;20057;-67
2023/07/04 03:26:34;;;;;;;6.18;1.35;;;11.60;99.90;;;;;;4968669;28;20142;-67
2023/07/04 03:29:01;;;;;;;6.43;1.08;;;11.60;99.90;;;;;;4968667;28;20049;-67
2023/07/04 03:31:28;;;;;;;4.03;1.30;;;11.60;99.90;;;;;;4986691;28;20057;-67
2023/07/04 03:33:53;;;;;;;5.45;1.27;;;11.70;99.90;;;;;;4969689;28;20065;-67
2023/07/04 03:36:20;;;;;;;7.93;1.23;;;11.80;99.90;;;;;;4969939;28;20407;-67
2023/07/04 03:38:46;;;;;;;6.00;1.10;;;11.80;99.90;;;;;;4986063;28;20039;-67
2023/07/04 03:41:12;;;;;;;9.60;1.13;;;11.80;99.90;;;;;;4966071;28;20053;-67
2023/07/04 03:43:38;;;;;;;9.25;1.58;;;11.90;99.90;;;;;;4968213;28;20050;-67
2023/07/04 03:46:05;;;;;;;8.35;1.30;;;11.90;99.90;;;;;;4970045;28;20061;-68
2023/07/04 03:48:32;;;;;;;7.47;1.77;;;11.90;99.90;;;;;;4967696;28;20413;-67
2023/07/04 03:50:58;;;;;;;7.53;1.27;;;12.00;99.90;;;;;;4951848;28;20054;-67
2023/07/04 03:53:24;;;;;;;5.10;1.52;;;12.00;99.90;;;;;;4952665;28;20092;-67
2023/07/04 03:55:50;;;;;;;7.60;1.90;;;12.10;99.90;;;;;;4986553;28;20046;-67
2023/07/04 03:58:20;;;;;;;10.15;1.52;;;12.10;99.90;;;;;;4969892;28;20049;-67
2023/07/04 04:00:47;;;;;;;4.10;1.27;;;12.10;99.90;;;;;;4966428;28;20052;-67
2023/07/04 04:03:13;;;;;;;6.57;1.45;;;12.20;99.90;;;;;;4969787;28;20042;-67
2023/07/04 04:05:40;;;;;;;10.52;1.50;;;12.20;99.90;;;;;;4985055;28;20065;-67
2023/07/04 04:08:06;;;;;;;2.50;0.95;;;12.20;99.90;;;;;;4984947;28;20050;-67
2023/07/04 04:10:32;;;;;;;9.95;1.30;;;12.30;99.90;;;;;;4955005;28;20054;-67
2023/07/04 04:12:58;;;;;;;3.20;1.42;;;12.30;99.90;;;;;;4986513;28;20065;-67
2023/07/04 04:15:23;;;;;;;3.92;1.33;;;12.30;99.90;;;;;;4969095;28;20045;-67
2023/07/04 04:17:49;;;;;;;10.82;1.80;;;12.40;99.90;;;;;;4948132;28;20043;-67
2023/07/04 04:20:15;;;;;;;8.50;1.40;;;12.40;99.90;;;;;;4960348;28;20050;-68
2023/07/04 04:22:45;;;;;;;4.30;1.38;;;12.40;99.90;;;;;;4967352;28;20054;-67
2023/07/04 04:25:12;;;;;;;9.60;1.45;;;12.50;99.90;;;;;;4969806;28;20058;-67
2023/07/04 04:27:39;;;;;;;5.10;0.90;;;12.50;99.90;;;;;;4967867;28;20054;-67
2023/07/04 04:30:08;;;;;;;10.02;1.63;;;12.60;99.90;;;;;;4949247;28;20043;-67
2023/07/04 04:32:38;;;;;;;7.68;1.40;;;12.60;99.90;;;;;;4963950;28;20049;-67
2023/07/04 04:35:04;;;;;;;;;;;12.70;99.90;;;;;;4972911;28;20515;-67
2023/07/04 04:37:31;;;;;;;11.55;1.10;;;12.70;99.90;;;;;;4950308;28;19926;-67
2023/07/04 04:39:56;;;;;;;4.22;1.27;;;12.70;99.90;;;;;;4953482;28;20122;-67
2023/07/04 04:42:23;;;;;;;5.32;1.00;;;12.70;99.90;;;;;;4960663;28;20166;-67
2023/07/04 04:44:53;;;;;;;4.93;1.20;;;12.80;99.90;;;;;;4956390;28;20527;-67
2023/07/04 04:47:25;;;;;;;;;;;12.80;99.90;;;;;;4949996;28;20127;-67
2023/07/04 04:50:10;;;;;;;9.70;1.25;;;12.90;99.90;;;;;;4968023;28;19921;-67
2023/07/04 04:52:37;;;;;;;4.43;1.02;;;13.00;99.90;;;;;;4948772;28;20129;-67
2023/07/04 04:55:03;;;;;;;12.82;1.30;;;13.10;99.90;;;;;;4966663;28;20110;-67
2023/07/04 04:57:29;;;;;;;9.30;1.08;;;13.10;99.90;;;;;;4965817;28;20045;-67
2023/07/04 04:59:59;;;;;;;3.53;1.05;;;13.20;99.90;;;;;;4973222;28;20057;-67
2023/07/04 05:02:25;;;;;;;4.35;1.35;;;13.30;99.90;;;;;;4976694;28;20055;-67
2023/07/04 05:04:51;;;;;;;6.40;1.15;;;13.40;99.90;;;;;;4952730;28;20125;-67
2023/07/04 05:07:18;;;;;;;9.82;1.45;;;13.50;99.90;;;;;;4970395;28;20046;-67
2023/07/04 05:09:44;;;;;;;4.82;1.70;;;13.60;99.90;;;;;;4952512;28;20089;-67
2023/07/04 05:12:09;;;;;;;3.85;1.30;;;13.60;99.90;;;;;;4990477;28;20528;-67
2023/07/04 05:14:35;;;;;;;8.73;1.63;;;13.60;99.90;;;;;;4988487;28;20050;-67
2023/07/04 05:17:01;;;;;;;4.85;1.27;;;13.70;99.90;;;;;;4972579;28;20046;-67
2023/07/04 05:19:27;;;;;;;4.25;1.52;;;13.80;99.90;;;;;;4971517;28;20038;-67
2023/07/04 05:21:53;;;;;;;5.25;1.48;;;13.80;99.90;;;;;;4985756;28;20055;-67
2023/07/04 05:24:19;;;;;;;4.90;1.67;;;13.80;99.90;;;;;;4989197;28;20464;-67
2023/07/04 05:26:45;;;;;;;9.25;1.60;;;13.80;99.90;;;;;;4971942;28;20065;-67
2023/07/04 05:29:11;;;;;;;8.07;1.55;;;13.90;99.90;;;;;;4990174;28;20436;-67
2023/07/04 05:31:37;;;;;;;5.57;1.30;;;13.90;99.90;;;;;;4968431;28;20089;-66
2023/07/04 05:34:02;;;;;;;4.57;1.42;;;14.00;99.90;;;;;;4972095;28;20559;-67
2023/07/04 05:36:33;;;;;;;8.27;1.70;;;14.10;99.90;;;;;;4988624;28;20079;-66
2023/07/04 05:39:01;;;;;;;10.68;1.52;;;14.10;99.90;;;;;;4989334;28;20125;-67
2023/07/04 05:41:28;;;;;;;6.60;1.02;;;14.20;99.90;;;;;;4969721;28;20097;-67
2023/07/04 05:43:55;;;;;;;7.72;1.48;;;14.20;99.90;;;;;;4989051;28;20121;-67
2023/07/04 05:46:21;;;;;;;4.78;1.10;;;14.20;99.90;;;;;;4989465;28;20050;-67
2023/07/04 05:48:47;;;;;;;5.07;1.27;;;14.20;99.90;;;;;;4963708;28;20067;-67
2023/07/04 05:51:14;;;;;;;7.32;1.45;;;14.20;99.90;;;;;;4949576;28;20501;-67
2023/07/04 05:53:42;;;;;;;5.15;1.40;;;14.30;99.90;;;;;;4986527;28;20132;-67
2023/07/04 05:56:13;;;;;;;3.72;1.33;;;14.30;99.90;;;;;;4944248;28;20054;-67
2023/07/04 05:58:44;;;;;;;2.15;1.38;;;14.40;99.90;;;;;;4987267;28;20137;-67
2023/07/04 06:01:15;;;;;;;5.10;1.63;;;14.40;99.90;;;;;;4970950;28;20501;-67
2023/07/04 06:03:41;;;;;;;15.85;1.95;;;14.50;99.90;;;;;;4969502;28;20054;-67
2023/07/04 06:06:29;;;;;;;2.97;1.25;;;14.60;99.90;;;;;;4978106;28;20100;-67
2023/07/04 06:08:57;;;;;;;7.93;1.58;;;14.70;99.90;;;;;;4969349;28;20050;-67
2023/07/04 06:11:26;;;;;;;3.97;1.45;;;14.70;99.90;;;;;;4942098;28;20069;-67
2023/07/04 06:13:53;;;;;;;10.63;1.80;;;14.80;99.90;;;;;;4986763;28;20519;-67
2023/07/04 06:16:20;;;;;;;6.68;1.55;;;14.80;99.90;;;;;;4957462;28;20292;-67
2023/07/04 06:18:46;;;;;;;5.25;1.33;;;14.70;99.90;;;;;;4970590;28;20531;-67
2023/07/04 06:21:13;;;;;;;5.95;1.52;;;14.80;99.90;;;;;;4967506;28;20146;-67
2023/07/04 06:23:40;;;;;;;8.20;2.15;;;15.00;99.90;;;;;;4976645;28;20057;-67
2023/07/04 06:26:07;;;;;;;9.60;2.10;;;15.10;99.90;;;;;;4988585;28;20408;-67
2023/07/04 06:28:35;;;;;;;5.90;2.25;;;15.20;99.90;;;;;;4954021;28;20093;-67
2023/07/04 06:31:05;;;;;;;5.05;1.65;;;15.30;99.90;;;;;;4969091;28;20039;-67
2023/07/04 06:33:32;;;;;;;4.63;1.65;;;15.30;99.90;;;;;;4968683;28;20104;-67
2023/07/04 06:35:58;;;;;;;5.50;1.45;;;15.40;99.90;;;;;;4969969;28;20405;-66
2023/07/04 06:38:25;;;;;;;6.88;1.50;;;15.50;99.90;;;;;;4968927;28;20038;-67
2023/07/04 06:40:58;;;;;;;7.00;1.40;;;15.50;99.90;;;;;;4955038;28;20042;-66
2023/07/04 06:43:29;;;;;;;4.35;1.17;;;15.40;99.90;;;;;;4970233;28;20047;-67
2023/07/04 06:45:55;;;;;;;4.97;1.20;;;15.40;99.90;;;;;;4952152;28;20051;-67
2023/07/04 06:48:22;;;;;;;10.88;1.23;;;15.50;99.90;;;;;;4948857;28;20058;-66
2023/07/04 06:51:03;;;;;;;4.72;1.20;;;15.50;99.90;;;;;;4968344;28;20510;-67
2023/07/04 06:53:31;;;;;;;6.63;1.23;;;15.60;99.90;;;;;;4971684;28;20057;-66
2023/07/04 06:56:26;;;;;;;4.65;1.40;;;15.70;99.90;;;;;;4974389;28;20081;-66
2023/07/04 06:58:55;;;;;;;4.97;1.15;;;15.70;99.90;;;;;;4949124;28;20456;-66
2023/07/04 07:01:26;;;;;;;5.32;1.20;;;15.80;99.90;;;;;;4965485;28;20142;-67
2023/07/04 07:03:52;;;;;;;1.50;0.60;;;15.80;99.90;;;;;;4972577;28;20050;-66
2023/07/04 07:06:19;;;;;;;3.85;1.00;;;15.90;99.90;;;;;;4945764;28;20082;-66
2023/07/04 07:08:44;;;;;;;2.95;0.90;;;15.90;99.90;;;;;;4970446;28;20102;-66
2023/07/04 07:11:13;;;;;;;0.65;0.43;;;15.80;99.90;;;;;;4973683;28;20058;-66
2023/07/04 07:13:40;;;;;;;3.50;1.05;;;15.90;99.90;;;;;;4975633;28;20125;-66
2023/07/04 07:16:11;;;;;;;2.78;0.80;;;15.90;99.90;;;;;;4946663;28;20125;-66
2023/07/04 07:18:38;;;;;;;1.25;0.68;;;16.00;99.90;;;;;;4959677;28;20049;-66
2023/07/04 07:21:06;;;;;;;2.92;1.00;;;16.10;99.90;;;;;;4949698;28;20517;-66
2023/07/04 07:23:35;;;;;;;1.13;0.40;;;16.20;99.90;;;;;;4949709;28;20077;-66
2023/07/04 07:26:03;;;;;;;6.65;1.30;;;16.40;99.90;;;;;;4971224;28;20375;-66
2023/07/04 07:28:33;;;;;;;3.55;0.77;;;16.50;99.90;;;;;;4966590;28;20103;-66
2023/07/04 07:31:04;;;;;;;6.70;1.38;;;16.60;99.90;;;;;;4981000;28;20046;-65
2023/07/04 07:33:34;;;;;;;6.10;1.45;;;16.70;99.90;;;;;;4965459;28;20170;-66
2023/07/04 07:36:11;;;;;;;2.97;0.60;;;16.70;99.90;;;;;;4967027;28;20230;-66
2023/07/04 07:38:37;;;;;;;6.60;0.77;;;16.70;99.90;;;;;;4967790;28;20496;-66
2023/07/04 07:41:04;;;;;;;2.08;1.10;;;16.70;99.90;;;;;;4959294;28;20046;-65
2023/07/04 07:43:34;;;;;;;2.47;0.80;;;16.70;99.20;;;;;;4967559;28;20069;-65
2023/07/04 07:46:00;;;;;;;3.53;0.73;;;17.00;99.90;;;;;;4969894;28;20055;-65
2023/07/04 07:48:26;;;;;;;1.52;0.68;;;17.20;99.90;;;;;;4951530;28;20461;-65
2023/07/04 07:50:53;;;;;;;1.17;0.70;;;17.40;99.90;;;;;;4940135;28;20047;-65
2023/07/04 07:53:19;;;;;;;3.30;0.93;;;17.40;97.80;;;;;;4936687;28;20050;-65
2023/07/04 07:55:44;;;;;;;2.25;0.77;;;17.30;96.20;;;;;;4951218;28;20452;-65
2023/07/04 07:58:11;;;;;;;5.88;1.05;;;17.20;96.00;;;;;;4947586;28;20110;-65
2023/07/04 08:00:37;;;;;;;1.58;0.57;;;17.00;92.10;;;;;;4941649;28;20054;-64
2023/07/04 08:03:02;;;;;;;2.13;0.73;;;16.90;93.30;;;;;;4937790;29;20043;-65
2023/07/04 08:05:28;;;;;;;6.80;0.80;;;16.90;96.60;;;;;;4948168;28;20074;-64
2023/07/04 08:07:54;;;;;;;1.75;0.50;;;16.90;95.80;;;;;;4946739;28;20133;-65
2023/07/04 08:10:20;;;;;;;4.25;0.75;;;16.90;95.30;;;;;;4947850;28;20051;-64
2023/07/04 08:12:46;;;;;;;5.82;0.95;;;16.90;96.60;;;;;;4952650;28;20048;-64
2023/07/04 08:15:11;;;;;;;4.70;1.08;;;17.00;97.10;;;;;;4946943;28;20536;-64
2023/07/04 08:17:38;;;;;;;4.03;0.70;;;17.20;96.70;;;;;;4947164;28;20043;-65
2023/07/04 08:20:05;;;;;;;1.23;0.45;;;17.10;95.30;;;;;;4954911;28;20454;-65
2023/07/04 08:22:31;;;;;;;0.70;0.43;;;17.20;93.30;;;;;;4954954;28;20050;-65
2023/07/04 08:24:58;;;;;;;4.28;0.90;;;17.10;88.40;;;;;;4938314;28;20051;-65
2023/07/04 08:27:25;;;;;;;1.67;0.75;;;17.10;87.60;;;;;;4954413;28;20446;-65
2023/07/04 08:29:51;;;;;;;2.08;0.82;;;17.10;88.20;;;;;;4947496;28;20121;-64
2023/07/04 08:32:20;;;;;;;5.35;1.00;;;17.20;90.40;;;;;;4939315;29;20043;-65
2023/07/04 08:34:47;;;;;;;3.17;0.70;;;17.10;90.50;;;;;;4946034;28;20042;-65
2023/07/04 08:37:14;;;;;;;1.65;0.70;;;17.20;92.50;;;;;;4961010;28;20564;-64
2023/07/04 08:39:45;;;;;;;1.17;0.50;;;17.20;87.20;;;;;;4959339;28;20506;-65
2023/07/04 08:42:14;;;;;;;1.30;0.70;;;17.30;79.10;;;;;;4937083;28;20047;-65
2023/07/04 08:44:46;;;;;;;4.10;0.60;;;17.30;76.00;;;;;;4950668;28;20508;-65
2023/07/04 08:47:15;;;;;;;2.30;0.90;;;17.40;68.40;;;;;;4945088;28;20418;-65
2023/07/04 08:49:42;;;;;;;5.88;0.93;;;17.40;69.70;;;;;;4946205;28;20051;-65
2023/07/04 08:52:18;;;;;;;3.15;1.00;;;17.50;72.80;;;;;;4951735;28;20035;-65
2023/07/04 08:54:44;;;;;;;2.53;0.75;;;17.60;65.70;;;;;;4944452;28;20162;-64
2023/07/04 08:58:04;;;;;;;2.13;0.90;;;17.60;58.20;;;;;;4947082;28;20043;-65
2023/07/04 09:00:42;;;;;;;6.05;0.73;;;17.50;50.80;;;;;;4870951;29;20269;-65
2023/07/04 09:03:24;;;;;;;2.50;0.70;;;17.50;60.80;;;;;;4938486;28;20061;-64
2023/07/04 09:06:10;;;;;;;4.80;0.80;;;17.70;57.20;;;;;;4947201;28;20039;-65
2023/07/04 09:08:58;;;;;;;2.38;0.50;;;18.20;52.50;;;;;;4944350;28;20133;-65
2023/07/04 09:11:25;;;;;;;1.05;0.60;;;18.60;31.20;;;;;;4933434;29;20084;-65
2023/07/04 09:14:17;;;;;;;3.63;0.63;;;18.60;6.40;;;;;;4948056;28;20060;-65
2023/07/04 09:16:48;;;;;;;3.70;0.80;;;18.60;13.20;;;;;;4938447;28;20054;-65
2023/07/04 09:19:19;;;;;;;1.23;0.65;;;18.40;2.10;;;;;;4948433;28;20062;-65
2023/07/04 09:21:45;;;;;;;1.60;0.80;;;18.30;16.10;;;;;;4946447;28;20054;-65
2023/07/04 09:24:11;;;;;;;8.18;0.57;;;18.40;22.20;;;;;;4956126;28;20035;-65
2023/07/04 09:26:40;;;;;;;2.40;0.82;;;18.70;12.20;;;;;;4947125;28;20109;-65
2023/07/04 09:29:07;;;;;;;2.38;1.02;;;18.70;1.00;;;;;;4928936;28;20092;-65
2023/07/04 09:31:37;;;;;;;3.15;0.90;;;18.80;1.00;;;;;;4948147;28;20726;-64
2023/07/04 09:34:14;;;;;;;4.15;0.70;;;18.80;3.20;;;;;;4934473;28;20478;-65
2023/07/04 09:36:41;;;;;;;8.13;1.33;;;19.20;6.80;;;;;;4946861;28;20047;-65
2023/07/04 09:39:08;;;;;;;3.25;0.80;;;19.50;1.00;;;;;;4928498;29;20051;-64
2023/07/04 09:41:37;;;;;;;2.25;0.80;;;19.70;1.00;;;;;;4946561;28;20256;-64
2023/07/04 09:44:18;;;;;;;2.85;0.63;;;19.50;1.00;;;;;;4940175;28;20044;-64
2023/07/04 09:46:50;;;;;;;7.65;1.00;;;19.20;1.00;;;;;;4948029;28;20203;-65
2023/07/04 09:49:23;;;;;;;5.05;1.58;;;19.00;1.00;;;;;;4950954;28;20528;-64
2023/07/04 09:52:17;;;;;;;5.10;1.33;;;18.70;1.00;;;;;;4943696;28;20058;-64
2023/07/04 09:55:04;;;;;;;3.10;1.13;;;18.40;1.00;;;;;;4952886;28;20042;-64
2023/07/04 09:57:30;;;;;;;3.97;1.20;;;18.00;7.40;;;;;;4940830;29;20039;-64
2023/07/04 10:00:24;;;;;;;6.60;1.50;;;17.60;25.90;;;;;;4957282;28;20156;-65
2023/07/04 10:02:55;;;;;;;5.93;1.15;;;17.30;33.30;;;;;;4946292;28;20058;-65
2023/07/04 10:05:32;;;;;;;4.38;1.40;;;16.90;54.90;;;;;;4930416;29;20091;-64
2023/07/04 10:08:11;;;;;;;3.88;1.40;;;16.60;72.90;;;;;;4950266;28;20469;-65
2023/07/04 10:10:48;;;;;;;4.40;1.40;;;16.50;80.60;;;;;;4950784;28;20082;-65
2023/07/04 10:13:15;;;;;;;3.15;1.20;;;16.40;81.70;;;;;;4940577;29;20039;-65
2023/07/04 10:15:45;;;;;;;3.17;1.10;;;16.30;87.00;;;;;;4933024;28;20155;-64
2023/07/04 10:18:26;;;;;;;6.38;1.50;;;16.40;90.70;;;;;;4949643;28;20086;-65
2023/07/04 10:20:57;;;;;;;9.20;1.60;;;16.80;90.70;;;;;;4949175;28;20569;-65
2023/07/04 10:23:26;;;;;;;2.63;1.00;;;16.80;83.40;;;;;;4945353;28;20153;-65
2023/07/04 10:25:54;;;;;;;6.25;1.55;;;17.10;72.20;;;;;;4948960;28;20068;-64
2023/07/04 10:28:27;;;;;;;5.45;1.45;;;17.50;73.20;;;;;;4949835;28;20046;-65
2023/07/04 10:31:06;;;;;;;7.28;1.42;;;17.70;47.20;;;;;;4938232;28;20147;-65
2023/07/04 10:34:09;;;;;;;9.77;1.70;;;17.50;35.50;;;;;;4949418;28;20092;-65
2023/07/04 10:36:37;;;;;;;4.65;1.35;;;17.30;48.00;;;;;;4953234;28;20386;-65
2023/07/04 10:39:16;;;;;;;5.13;0.82;;;17.10;60.00;;;;;;4947799;28;20380;-66
2023/07/04 10:41:54;;;;;;;10.38;1.95;;;17.30;78.40;;;;;;4948087;28;20062;-65
2023/07/04 10:44:31;;;;;;;4.00;0.80;;;17.40;69.40;;;;;;4949170;28;20383;-66
2023/07/04 10:47:04;;;;;;;5.30;0.73;;;17.30;25.70;;;;;;4933041;28;20062;-66
2023/07/04 10:49:53;;;;;;;5.90;0.85;;;17.20;29.40;;;;;;4952266;28;20502;-65
2023/07/04 10:52:25;;;;;;;3.95;1.13;;;17.40;20.50;;;;;;4947571;28;20476;-65
2023/07/04 10:54:53;;;;;;;2.05;0.98;;;17.70;30.40;;;;;;4931930;28;20047;-65
2023/07/04 10:57:47;;;;;;;5.60;1.30;;;18.00;11.20;;;;;;4938309;28;20051;-65
2023/07/04 11:00:37;;;;;;;3.78;0.85;;;18.30;15.60;;;;;;4950202;28;20081;-65
2023/07/04 11:03:14;;;;;;;2.25;0.82;;;18.60;13.00;;;;;;4954332;28;20069;-65
2023/07/04 11:05:47;;;;;;;2.35;1.05;;;18.60;1.00;;;;;;4941460;28;20046;-65
2023/07/04 11:08:15;;;;;;;1.52;0.80;;;18.40;1.00;;;;;;4947225;28;20062;-65
2023/07/04 11:10:43;;;;;;;4.22;1.10;;;18.30;1.00;;;;;;4936634;28;20097;-65
2023/07/04 11:13:18;;;;;;;1.15;0.60;;;18.30;1.00;;;;;;4940917;29;20094;-65
2023/07/04 11:15:49;;;;;;;3.38;0.95;;;18.10;1.00;;;;;;4950704;28;20049;-65
2023/07/04 11:18:17;;;;;;;5.68;1.30;;;17.80;1.00;;;;;;4947457;28;20046;-65
2023/07/04 11:21:15;;;;;;;3.08;1.00;;;17.70;14.60;;;;;;4948822;28;20094;-65
2023/07/04 11:24:13;;;;;;;3.30;1.10;;;17.90;22.90;;;;;;4948697;28;20073;-65
2023/07/04 11:26:59;;;;;;;3.25;1.10;;;17.90;12.80;;;;;;4931194;29;20412;-65
2023/07/04 11:29:28;;;;;;;8.07;1.20;;;18.00;19.50;;;;;;4916832;28;20058;-65
2023/07/04 11:32:02;;;;;;;4.13;1.25;;;18.20;28.20;;;;;;4960218;28;20078;-65
2023/07/04 11:34:46;;;;;;;6.05;1.40;;;18.50;18.70;;;;;;4950814;28;20506;-65
2023/07/04 11:37:42;;;;;;;6.45;1.60;;;18.60;18.10;;;;;;4942165;28;20043;-65
2023/07/04 11:40:23;;;;;;;7.63;1.40;;;18.60;11.50;;;;;;4929914;28;20050;-65
2023/07/04 11:43:03;;;;;;;7.72;1.05;;;18.70;17.80;;;;;;4955257;28;20390;-66
2023/07/04 11:45:30;;;;;;;7.70;1.35;;;18.80;14.30;;;;;;4948084;28;20466;-65
2023/07/04 11:48:12;;;;;;;6.60;1.45;;;19.00;9.00;;;;;;4943791;28;20058;-65
2023/07/04 11:50:43;;;;;;;3.17;0.80;;;19.20;21.70;;;;;;4974606;28;20529;-66
2023/07/04 11:53:17;;;;;;;5.47;1.17;;;19.40;1.00;;;;;;4959367;28;20050;-66
2023/07/04 11:55:44;;;;;;;3.55;1.05;;;19.50;1.00;;;;;;4975541;28;20534;-65
2023/07/04 11:58:10;;;;;;;2.30;0.98;;;19.60;1.00;;;;;;4949906;28;20049;-65
2023/07/04 12:00:36;;;;;;;2.83;1.15;;;19.70;1.00;;;;;;4948695;28;20046;-66
2023/07/04 12:03:17;;;;;;;10.73;1.35;;;19.70;1.00;;;;;;4958236;28;20118;-66
2023/07/04 12:05:48;;;;;;;2.58;1.30;;;19.70;1.00;;;;;;4966111;28;20565;-66
2023/07/04 12:08:35;;;;;;;3.13;1.42;;;19.70;1.00;;;;;;4963510;28;20409;-66
2023/07/04 12:11:08;;;;;;;4.85;1.30;;;19.80;1.00;;;;;;4953696;28;20173;-65
2023/07/04 12:13:39;;;;;;;6.47;1.42;;;20.00;1.00;;;;;;4980057;28;20038;-66
2023/07/04 12:16:05;;;;;;;6.45;1.30;;;19.90;1.00;;;;;;4985239;28;20046;-66
2023/07/04 12:18:39;;;;;;;3.60;1.25;;;19.80;1.00;;;;;;4985292;28;20038;-65
2023/07/04 12:21:06;;;;;;;4.47;1.60;;;19.60;1.00;;;;;;4984099;28;20047;-65
2023/07/04 12:23:32;;;;;;;5.03;1.27;;;19.40;1.00;;;;;;4973778;28;20631;-65
2023/07/04 12:26:02;;;;;;;4.43;1.13;;;19.40;1.00;;;;;;4984994;28;20054;-65
2023/07/04 12:28:28;;;;;;;;;;;19.30;1.00;;;;;;4975279;28;20058;-65
2023/07/04 12:31:03;;;;;;;3.80;1.17;;;19.30;1.00;;;;;;4966243;28;20555;-65
2023/07/04 12:33:31;;;;;;;1.95;1.27;;;19.50;1.00;;;;;;4957582;28;20050;-66
2023/07/04 12:36:09;;;;;;;7.15;1.50;;;19.70;1.00;;;;;;4981407;28;20497;-65
2023/07/04 12:38:49;;;;;;;2.93;0.80;;;19.90;1.00;;;;;;4974123;28;20062;-65
2023/07/04 12:41:18;;;;;;;2.38;0.80;;;20.00;1.00;;;;;;4968886;28;20054;-65
2023/07/04 12:43:44;;;;;;;4.35;1.00;;;20.00;1.00;;;;;;4985596;28;20042;-65
2023/07/04 12:46:11;;;;;;;3.55;1.05;;;20.00;1.00;;;;;;4984954;28;20129;-66
2023/07/04 12:48:37;;;;;;;4.55;1.77;;;20.00;1.00;;;;;;4968960;28;20066;-66
2023/07/04 12:51:07;;;;;;;4.03;1.02;;;20.00;1.00;;;;;;4967304;28;20517;-65
2023/07/04 12:53:33;;;;;;;4.25;1.33;;;20.10;1.00;;;;;;4965638;28;20074;-65
2023/07/04 12:56:00;;;;;;;2.97;1.20;;;20.10;1.00;;;;;;4948053;28;20051;-65
2023/07/04 12:58:26;;;;;;;4.22;1.33;;;20.10;1.00;;;;;;4966252;28;20118;-66
2023/07/04 13:00:55;;;;;;;4.75;1.20;;;20.10;1.00;;;;;;4948744;28;20501;-66
2023/07/04 13:03:22;;;;;;;4.75;1.10;;;20.20;1.00;;;;;;4966816;28;20110;-65